createdAt,value
2023-02-14T00:00:34.201Z,51.75
2023-02-14T00:03:49.866Z,49.65
2023-02-14T00:06:53.426Z,50.65
2023-02-14T00:09:57.040Z,47.35
2023-02-14T00:13:00.894Z,42.38
2023-02-14T00:16:05.328Z,39.90
2023-02-14T00:19:12.246Z,41.60
2023-02-14T00:22:16.413Z,41.15
2023-02-14T00:25:20.412Z,40.15
2023-02-14T00:28:24.400Z,40.20
2023-02-14T00:31:28.741Z,41.60
2023-02-14T00:34:33.853Z,40.10
2023-02-14T00:37:37.506Z,41.88
2023-02-14T00:40:41.709Z,47.30
2023-02-14T00:43:50.313Z,49.97
2023-02-14T00:46:54.245Z,51.38
2023-02-14T00:50:03.276Z,53.50
2023-02-14T00:53:13.322Z,49.72
2023-02-14T00:56:18.981Z,53.20
2023-02-14T00:59:22.855Z,50.83
2023-02-14T01:02:26.993Z,68.57
2023-02-14T01:05:31.693Z,59.70
2023-02-14T01:08:35.853Z,59.13
2023-02-14T01:11:41.039Z,66.30
2023-02-14T01:14:45.179Z,62.50
2023-02-14T01:17:49.939Z,57.75
2023-02-14T01:20:53.493Z,55.65
2023-02-14T01:24:03.816Z,53.45
2023-02-14T01:27:07.737Z,57.28
2023-02-14T01:30:12.577Z,60.45
2023-02-14T01:33:17.101Z,59.75
2023-02-14T01:36:38.670Z,68.65
2023-02-14T01:39:53.017Z,65.50
2023-02-14T01:43:02.454Z,70.97
2023-02-14T01:46:06.201Z,62.30
2023-02-14T01:49:50.005Z,64.80
2023-02-14T01:53:09.803Z,68.65
2023-02-14T01:56:28.587Z,65.32
2023-02-14T01:59:53.265Z,61.10
2023-02-14T02:03:00.813Z,57.22
2023-02-14T02:06:20.309Z,54.05
2023-02-14T02:13:09.887Z,58.83
2023-02-14T02:20:39.713Z,60.80
2023-02-14T02:23:58.951Z,56.40
2023-02-14T02:27:26.216Z,65.07
2023-02-14T02:31:15.331Z,59.83
2023-02-14T02:34:50.634Z,59.20
2023-02-14T02:38:16.052Z,59.53
2023-02-14T02:41:32.209Z,66.30
2023-02-14T02:44:43.735Z,59.90
2023-02-14T02:48:15.992Z,65.25
2023-02-14T02:52:01.092Z,56.53
2023-02-14T02:58:27.938Z,53.07
2023-02-14T03:01:42.058Z,80.03
2023-02-14T03:04:57.100Z,60.75
2023-02-14T03:08:01.772Z,66.60
2023-02-14T03:11:06.285Z,85.45
2023-02-14T03:14:20.255Z,72.50
2023-02-14T03:17:44.899Z,98.90
2023-02-14T03:21:01.519Z,64.32
2023-02-14T03:24:14.880Z,71.15
2023-02-14T03:27:28.072Z,66.47
2023-02-14T03:30:39.540Z,59.83
2023-02-14T03:33:51.292Z,62.65
2023-02-14T03:36:59.130Z,68.20
2023-02-14T03:40:13.984Z,66.40
2023-02-14T03:43:23.491Z,60.85
2023-02-14T03:47:09.168Z,98.75
2023-02-14T03:50:19.010Z,159.67
2023-02-14T03:53:30.481Z,181.23
2023-02-14T03:56:45.217Z,119.05
2023-02-14T03:59:57.176Z,135.48
2023-02-14T04:03:06.983Z,80.75
2023-02-14T04:06:21.383Z,67.45
2023-02-14T04:09:25.756Z,69.95
2023-02-14T04:12:37.762Z,72.20
2023-02-14T04:15:42.465Z,220.85
2023-02-14T04:19:09.718Z,518.03
2023-02-14T04:22:13.294Z,228.95
2023-02-14T04:25:17.183Z,142.95
2023-02-14T04:28:21.109Z,514.67
2023-02-14T04:31:35.532Z,197.23
2023-02-14T04:34:40.583Z,180.23
2023-02-14T04:37:47.831Z,174.38
2023-02-14T04:40:53.190Z,132.60
2023-02-14T04:44:07.138Z,123.20
2023-02-14T04:47:11.139Z,116.05
2023-02-14T04:50:16.043Z,98.97
2023-02-14T04:53:19.882Z,93.15
2023-02-14T04:56:23.641Z,83.93
2023-02-14T04:59:28.688Z,79.93
2023-02-14T05:02:32.552Z,130.07
2023-02-14T05:05:36.178Z,75.32
2023-02-14T05:08:44.862Z,81.57
2023-02-14T05:11:53.833Z,84.13
2023-02-14T05:15:07.907Z,79.78
2023-02-14T05:18:11.626Z,72.43
2023-02-14T05:21:15.474Z,181.13
2023-02-14T05:24:19.322Z,131.05
2023-02-14T05:27:27.842Z,80.03
2023-02-14T05:30:31.547Z,76.45
2023-02-14T05:33:35.662Z,58.00
2023-02-14T05:36:40.137Z,72.88
2023-02-14T05:39:53.976Z,63.35
2023-02-14T05:42:57.904Z,53.47
2023-02-14T05:46:01.824Z,53.63
2023-02-14T05:49:08.001Z,57.00
2023-02-14T05:52:21.877Z,57.13
2023-02-14T05:55:26.702Z,60.58
2023-02-14T05:58:41.254Z,53.53
2023-02-14T06:01:45.307Z,50.92
2023-02-14T06:04:49.692Z,57.13
2023-02-14T06:07:54.142Z,52.83
2023-02-14T06:11:12.968Z,53.46
2023-02-14T06:14:21.890Z,57.83
2023-02-14T06:17:28.172Z,63.38
2023-02-14T06:20:32.603Z,76.55
2023-02-14T06:23:37.090Z,64.40
2023-02-14T06:26:46.380Z,68.68
2023-02-14T06:29:50.431Z,70.70
2023-02-14T06:33:00.515Z,59.60
2023-02-14T06:36:11.095Z,53.53
2023-02-14T06:39:26.898Z,63.30
2023-02-14T06:42:30.880Z,55.53
2023-02-14T06:45:46.982Z,51.78
2023-02-14T06:49:00.908Z,54.58
2023-02-14T06:52:09.554Z,43.78
2023-02-14T06:55:14.404Z,45.00
2023-02-14T06:58:24.472Z,39.35
2023-02-14T07:01:29.084Z,50.70
2023-02-14T07:04:33.242Z,49.30
2023-02-14T07:07:42.243Z,39.00
2023-02-14T07:10:58.550Z,46.75
2023-02-14T07:14:03.190Z,51.88
2023-02-14T07:17:07.330Z,40.55
2023-02-14T07:20:21.174Z,45.85
2023-02-14T07:23:25.863Z,43.72
2023-02-14T07:26:29.548Z,45.78
2023-02-14T07:29:33.510Z,48.17
2023-02-14T07:32:44.118Z,49.92
2023-02-14T07:35:59.557Z,66.97
2023-02-14T07:39:03.165Z,49.33
2023-02-14T07:42:08.675Z,51.11
2023-02-14T07:45:21.739Z,55.53
2023-02-14T07:48:31.891Z,50.65
2023-02-14T07:51:37.144Z,46.85
2023-02-14T07:54:41.227Z,47.95
2023-02-14T07:57:48.631Z,47.72
2023-02-14T08:00:53.008Z,59.70
2023-02-14T08:03:56.558Z,70.03
2023-02-14T08:07:05.111Z,57.33
2023-02-14T08:10:12.611Z,46.40
2023-02-14T08:13:16.583Z,53.73
2023-02-14T08:16:20.734Z,52.10
2023-02-14T08:19:25.383Z,54.80
2023-02-14T08:22:30.422Z,53.60
2023-02-14T08:25:40.800Z,49.47
2023-02-14T08:28:45.366Z,52.17
2023-02-14T08:32:01.914Z,51.58
2023-02-14T08:35:05.896Z,52.45
2023-02-14T08:38:15.679Z,57.38
2023-02-14T08:41:19.853Z,54.60
2023-02-14T08:44:24.162Z,59.08
2023-02-14T08:47:28.000Z,58.80
2023-02-14T08:50:31.772Z,50.42
2023-02-14T08:53:44.163Z,47.92
2023-02-14T08:56:49.045Z,44.25
2023-02-14T08:59:52.967Z,50.17
2023-02-14T09:03:03.457Z,45.83
2023-02-14T09:06:14.493Z,55.30
2023-02-14T09:09:19.914Z,66.05
2023-02-14T09:12:23.980Z,50.13
2023-02-14T09:15:29.447Z,47.17
2023-02-14T09:18:33.419Z,54.28
2023-02-14T09:21:38.321Z,50.97
2023-02-14T09:24:42.765Z,48.67
2023-02-14T09:27:46.654Z,47.03
2023-02-14T09:30:54.446Z,47.97
2023-02-14T09:34:05.095Z,52.15
2023-02-14T09:37:31.046Z,48.38
2023-02-14T09:40:40.028Z,49.90
2023-02-14T09:44:00.078Z,58.78
2023-02-14T09:47:31.325Z,52.38
2023-02-14T09:50:54.676Z,56.95
2023-02-14T09:54:13.519Z,49.67
2023-02-14T09:57:26.191Z,52.45
2023-02-14T10:01:00.959Z,56.72
2023-02-14T10:04:09.024Z,52.20
2023-02-14T10:07:34.519Z,49.13
2023-02-14T10:10:44.830Z,51.13
2023-02-14T10:13:55.818Z,49.60
2023-02-14T10:17:38.197Z,47.50
2023-02-14T10:20:51.337Z,47.25
2023-02-14T10:24:14.900Z,43.13
2023-02-14T10:27:44.315Z,49.63
2023-02-14T10:31:23.397Z,41.47
2023-02-14T10:34:49.870Z,44.47
2023-02-14T10:37:55.492Z,51.83
2023-02-14T10:41:12.248Z,48.92
2023-02-14T10:44:24.889Z,50.80
2023-02-14T10:48:13.722Z,45.63
2023-02-14T10:51:47.439Z,52.75
2023-02-14T10:55:32.096Z,45.43
2023-02-14T10:58:40.508Z,35.28
2023-02-14T11:04:54.269Z,42.53
2023-02-14T11:07:59.572Z,58.80
2023-02-14T11:11:15.577Z,69.63
2023-02-14T11:14:26.899Z,60.87
2023-02-14T11:17:33.173Z,49.28
2023-02-14T11:20:38.040Z,101.53
2023-02-14T11:23:52.364Z,95.80
2023-02-14T11:27:07.846Z,63.25
2023-02-14T11:30:43.948Z,46.53
2023-02-14T11:33:58.758Z,53.35
2023-02-14T11:37:04.332Z,76.85
2023-02-14T11:40:40.319Z,48.22
2023-02-14T11:43:52.505Z,42.33
2023-02-14T11:47:30.385Z,58.33
2023-02-14T11:50:35.021Z,60.08
2023-02-14T11:53:52.669Z,94.47
2023-02-14T11:57:14.115Z,62.13
2023-02-14T12:00:20.675Z,59.60
2023-02-14T12:03:25.333Z,89.32
2023-02-14T12:06:37.003Z,52.17
2023-02-14T12:09:43.147Z,43.33
2023-02-14T12:13:09.957Z,46.42
2023-02-14T12:16:26.819Z,60.35
2023-02-14T12:19:56.269Z,59.05
2023-02-14T12:23:35.995Z,60.65
2023-02-14T12:26:47.301Z,60.13
2023-02-14T12:29:57.161Z,50.70
2023-02-14T12:33:02.099Z,45.45
2023-02-14T12:40:43.464Z,51.25
2023-02-14T12:43:59.300Z,47.08
2023-02-14T12:47:18.162Z,56.35
2023-02-14T12:50:36.973Z,87.22
2023-02-14T12:54:03.910Z,81.53
2023-02-14T12:57:25.961Z,71.10
2023-02-14T13:00:57.834Z,67.13
2023-02-14T13:04:41.063Z,58.72
2023-02-14T13:07:55.170Z,54.90
2023-02-14T13:14:33.757Z,42.63
2023-02-14T13:17:47.995Z,43.77
2023-02-14T13:21:14.941Z,55.20
2023-02-14T13:24:22.871Z,102.03
2023-02-14T13:27:37.989Z,124.05
2023-02-14T13:30:46.957Z,99.40
2023-02-14T13:33:57.730Z,83.90
2023-02-14T13:37:06.770Z,81.60
2023-02-14T13:40:35.776Z,62.08
2023-02-14T13:43:53.251Z,64.15
2023-02-14T13:47:15.837Z,65.65
2023-02-14T13:50:23.103Z,57.97
2023-02-14T13:53:48.695Z,56.90
2023-02-14T13:56:52.921Z,56.13
2023-02-14T14:00:18.159Z,57.75
2023-02-14T14:03:33.046Z,44.60
2023-02-14T14:07:04.713Z,89.95
2023-02-14T14:10:12.545Z,92.03
2023-02-14T14:13:54.166Z,361.80
2023-02-14T14:17:00.580Z,87.72
2023-02-14T14:20:25.663Z,63.72
2023-02-14T14:23:39.443Z,47.22
2023-02-14T14:27:01.339Z,42.50
2023-02-14T14:30:20.086Z,39.63
2023-02-14T14:33:35.472Z,147.80
2023-02-14T14:36:49.534Z,43.20
2023-02-14T14:40:01.354Z,163.73
2023-02-14T14:47:00.525Z,38.67
2023-02-14T14:50:10.739Z,51.83
2023-02-14T14:53:45.236Z,73.88
2023-02-14T14:57:02.109Z,68.50
2023-02-14T15:04:15.621Z,59.95
2023-02-14T15:07:38.318Z,54.22
2023-02-14T15:10:43.566Z,67.93
2023-02-14T15:13:58.732Z,64.70
2023-02-14T15:17:08.801Z,48.00
2023-02-14T15:20:24.464Z,53.65
2023-02-14T15:23:28.628Z,48.83
2023-02-14T15:26:36.459Z,49.03
2023-02-14T15:29:59.704Z,56.78
2023-02-14T15:33:14.002Z,50.03
2023-02-14T15:36:21.958Z,245.63
2023-02-14T15:39:43.799Z,112.80
2023-02-14T15:43:12.056Z,66.25
2023-02-14T15:46:28.931Z,53.63
2023-02-14T15:49:41.633Z,50.13
2023-02-14T15:52:47.837Z,51.60
2023-02-14T15:55:52.343Z,48.03
2023-02-14T15:59:07.615Z,52.83
2023-02-14T16:02:38.153Z,59.22
2023-02-14T16:05:48.102Z,53.03
2023-02-14T16:08:57.115Z,53.38
2023-02-14T16:12:25.134Z,52.92
2023-02-14T16:15:34.466Z,63.90
2023-02-14T16:18:41.820Z,60.75
2023-02-14T16:21:57.952Z,68.75
2023-02-14T16:25:04.738Z,71.38
2023-02-14T16:28:14.757Z,71.72
2023-02-14T16:31:18.563Z,79.10
2023-02-14T16:34:29.221Z,74.63
2023-02-14T16:37:46.417Z,77.68
2023-02-14T16:40:53.753Z,76.30
2023-02-14T16:44:02.550Z,78.45
2023-02-14T16:47:12.975Z,68.40
2023-02-14T16:50:18.194Z,71.43
2023-02-14T16:53:32.697Z,60.25
2023-02-14T16:56:51.905Z,69.32
2023-02-14T16:59:57.689Z,66.00
2023-02-14T17:03:08.506Z,68.30
2023-02-14T17:06:22.328Z,60.00
2023-02-14T17:09:42.008Z,62.58
2023-02-14T17:12:49.150Z,57.28
2023-02-14T17:15:58.206Z,57.15
2023-02-14T17:19:03.712Z,50.63
2023-02-14T17:22:08.195Z,54.42
2023-02-14T17:25:12.789Z,50.45
2023-02-14T17:28:19.881Z,51.58
2023-02-14T17:31:23.577Z,50.95
2023-02-14T17:34:32.664Z,59.92
2023-02-14T17:37:37.646Z,52.47
2023-02-14T17:40:43.218Z,55.53
2023-02-14T17:43:47.444Z,55.67
2023-02-14T17:46:51.482Z,51.58
2023-02-14T17:49:55.131Z,48.88
2023-02-14T17:53:09.907Z,46.92
2023-02-14T17:56:22.469Z,48.60
2023-02-14T17:59:26.727Z,51.17
2023-02-14T18:02:39.185Z,47.67
2023-02-14T18:05:42.909Z,51.53
2023-02-14T18:08:50.315Z,47.55
2023-02-14T18:12:00.122Z,53.35
2023-02-14T18:15:14.366Z,50.97
2023-02-14T18:18:18.438Z,47.33
2023-02-14T18:21:22.301Z,55.67
2023-02-14T18:24:26.628Z,56.15
2023-02-14T18:27:30.296Z,59.15
2023-02-14T18:30:44.194Z,58.38
2023-02-14T18:33:49.640Z,61.35
2023-02-14T18:36:56.187Z,64.63
2023-02-14T18:40:00.348Z,59.55
2023-02-14T18:43:04.465Z,64.75
2023-02-14T18:46:20.022Z,57.25
2023-02-14T18:49:23.941Z,59.08
2023-02-14T18:52:28.076Z,64.55
2023-02-14T18:55:32.524Z,61.38
2023-02-14T18:58:37.323Z,60.60
2023-02-14T19:01:46.488Z,65.57
2023-02-14T19:04:59.486Z,64.45
2023-02-14T19:08:03.999Z,62.83
2023-02-14T19:11:22.503Z,53.30
2023-02-14T19:14:32.401Z,54.97
2023-02-14T19:17:37.889Z,64.18
2023-02-14T19:20:42.219Z,60.22
2023-02-14T19:23:46.872Z,58.83
2023-02-14T19:26:50.516Z,68.43
2023-02-14T19:29:54.340Z,66.88
2023-02-14T19:33:08.070Z,63.03
2023-02-14T19:36:19.815Z,62.95
2023-02-14T19:39:24.887Z,63.22
2023-02-14T19:42:40.575Z,55.45
2023-02-14T19:45:54.573Z,53.58
2023-02-14T19:48:59.364Z,59.99
2023-02-14T19:52:06.230Z,56.42
2023-02-14T19:55:22.487Z,62.45
2023-02-14T19:58:37.148Z,71.80
2023-02-14T20:01:49.801Z,93.45
2023-02-14T20:04:53.921Z,75.32
2023-02-14T20:07:59.479Z,87.22
2023-02-14T20:11:27.396Z,79.38
2023-02-14T20:14:49.818Z,92.93
2023-02-14T20:17:59.370Z,116.95
2023-02-14T20:21:03.377Z,114.65
2023-02-14T20:24:22.175Z,138.48
2023-02-14T20:27:26.374Z,99.03
2023-02-14T20:30:30.158Z,135.32
2023-02-14T20:33:44.184Z,117.43
2023-02-14T20:36:56.302Z,113.45
2023-02-14T20:40:00.970Z,128.85
2023-02-14T20:43:04.847Z,165.35
2023-02-14T20:46:09.120Z,134.20
2023-02-14T20:49:13.116Z,157.73
2023-02-14T20:52:18.424Z,154.55
2023-02-14T20:55:22.294Z,140.88
2023-02-14T20:58:26.203Z,134.80
2023-02-14T21:01:30.976Z,167.52
2023-02-14T21:04:35.572Z,120.47
2023-02-14T21:07:39.401Z,142.25
2023-02-14T21:10:43.238Z,128.05
2023-02-14T21:13:47.947Z,111.32
2023-02-14T21:17:04.708Z,121.53
2023-02-14T21:20:20.068Z,116.90
2023-02-14T21:23:27.255Z,125.80
2023-02-14T21:26:32.404Z,117.50
2023-02-14T21:29:36.211Z,113.43
2023-02-14T21:32:40.263Z,134.75
2023-02-14T21:35:51.785Z,118.65
2023-02-14T21:39:06.835Z,151.68
2023-02-14T21:42:12.364Z,120.60
2023-02-14T21:45:34.862Z,99.85
2023-02-14T21:48:59.978Z,96.53
2023-02-14T21:52:04.446Z,97.85
2023-02-14T21:55:08.848Z,56.47
2023-02-14T21:58:13.574Z,65.57
2023-02-14T22:01:30.544Z,62.15
2023-02-14T22:04:40.173Z,65.13
2023-02-14T22:07:43.894Z,68.82
2023-02-14T22:10:48.369Z,102.30
2023-02-14T22:13:51.984Z,170.63
2023-02-14T22:16:56.800Z,175.48
2023-02-14T22:20:00.954Z,167.95
2023-02-14T22:23:05.835Z,153.73
2023-02-14T22:26:20.090Z,155.13
2023-02-14T22:29:23.752Z,170.90
2023-02-14T22:32:38.833Z,223.57
2023-02-14T22:35:43.004Z,249.60
2023-02-14T22:38:47.120Z,242.02
2023-02-14T22:41:55.869Z,198.30
2023-02-14T22:45:00.101Z,147.85
2023-02-14T22:48:04.901Z,145.23
2023-02-14T22:51:30.620Z,114.68
2023-02-14T22:54:44.703Z,182.00
2023-02-14T22:57:48.325Z,218.00
2023-02-14T23:00:57.214Z,208.03
2023-02-14T23:04:02.803Z,191.05
2023-02-14T23:07:06.982Z,150.75
2023-02-14T23:10:11.804Z,152.65
2023-02-14T23:13:34.975Z,115.07
2023-02-14T23:16:56.895Z,88.78
2023-02-14T23:20:29.765Z,88.60
2023-02-14T23:23:34.502Z,91.43
2023-02-14T23:26:43.769Z,119.10
2023-02-14T23:29:47.997Z,106.93
2023-02-14T23:32:51.992Z,99.07
2023-02-14T23:36:04.671Z,195.25
2023-02-14T23:39:08.411Z,170.10
2023-02-14T23:42:15.061Z,116.25
2023-02-14T23:45:35.184Z,105.75
2023-02-14T23:48:42.822Z,97.78
2023-02-14T23:51:50.472Z,119.23
2023-02-14T23:55:00.932Z,109.50
2023-02-14T23:58:11.034Z,112.28
